LBH weather

Palm Beach Seaplane Base
Sydney, Victoria, Australia

Public forecast

Using degrees Celsius for public forecast. Weather courtesy of forecast.io.

METAR (pilot weather report)

Closest report is Sydney Kingsford Smith International Airport, 22.8 nm (42.2 km) SSW. Retrieved 2019/04/22 02:30 UTC (19 minutes ago):

YSSY 220230Z 03011KT 9999 FEW035 BKN250 26/15 Q1021 NOSIG

TAF (pilot weather forecast)

Forecast is more than 12 hours old.

Closest forecast is Sydney Kingsford Smith International Airport, 22.8 nm (42.2 km) SSW. Retrieved 2019/04/21 00:40 UTC (1 day ago):

TAF YSSY 212301Z 2200/2306 34005KT CAVOK FM220100 05015KT 9999 FEW035 FM221000 03008KT 9999 FEW025 FM221800 20008KT 9999 -SHRA SCT025 FM230000 15008KT 9999 -SHRA SCT025